Chesterfield, Connecticut
Current Conditions -  °F | °C
As of 7:56 PM on Monday 26 Jan 2015 (Local Time) from KGON Reporting Station
Light Snow Light Snow  
Wind Chill: 15°   Ceiling: 1400
Heat Index: 28°   Visibility: 1mi
Dew Point: 25°   Wind: 21mph
Humidity: 88%   Direction: 30°NNE
Pressure: 29.83"   Gusts: 29mph
Location:  41.4669°N, 72.1896°W
Report Text: KGON 270056Z 03018G25KT 1SM R05/P6000FT -SN BR VV014 M02/M04 A2983 RMK AO2 SLP101 P0000 T10221039
Loading
Personal Weather Stations






























Interactive Weather Map New forecast layout! Learn more

10-Day Weather Forecast

Advertisements
Track Severe Weather on mobile